createdAt,value
2019-02-10T00:00:56.061Z,1000.09
2019-02-10T00:01:56.041Z,1000.06
2019-02-10T00:02:56.012Z,1000.02
2019-02-10T00:03:56.000Z,1000.03
2019-02-10T00:04:55.969Z,999.96
2019-02-10T00:05:55.944Z,1000.01
2019-02-10T00:06:55.926Z,999.95
2019-02-10T00:07:55.901Z,999.96
2019-02-10T00:08:56.980Z,999.92
2019-02-10T00:09:55.950Z,999.84
2019-02-10T00:10:55.827Z,999.86
2019-02-10T00:11:55.805Z,999.84
2019-02-10T00:12:55.781Z,999.85
2019-02-10T00:13:55.761Z,999.76
2019-02-10T00:14:55.742Z,999.77
2019-02-10T00:15:55.712Z,999.71
2019-02-10T00:16:55.688Z,999.74
2019-02-10T00:17:55.665Z,999.68
2019-02-10T00:18:55.649Z,999.59
2019-02-10T00:19:55.673Z,999.60
2019-02-10T00:20:55.603Z,999.60
2019-02-10T00:21:55.575Z,999.57
2019-02-10T00:22:55.550Z,999.58
2019-02-10T00:23:55.534Z,999.53
2019-02-10T00:24:55.509Z,999.55
2019-02-10T00:25:55.487Z,999.52
2019-02-10T00:26:55.456Z,999.54
2019-02-10T00:27:55.435Z,999.46
2019-02-10T00:28:55.410Z,999.48
2019-02-10T00:29:55.387Z,999.48
2019-02-10T00:30:55.367Z,999.46
2019-02-10T00:31:55.339Z,999.46
2019-02-10T00:32:55.317Z,999.48
2019-02-10T00:33:55.292Z,999.37
2019-02-10T00:34:55.284Z,999.39
2019-02-10T00:35:55.248Z,999.36
2019-02-10T00:36:55.222Z,999.33
2019-02-10T00:37:55.205Z,999.37
2019-02-10T00:38:55.174Z,999.27
2019-02-10T00:39:55.165Z,999.31
2019-02-10T00:40:55.133Z,999.26
2019-02-10T00:41:55.112Z,999.22
2019-02-10T00:42:55.080Z,999.25
2019-02-10T00:43:55.073Z,999.22
2019-02-10T00:44:55.035Z,999.26
2019-02-10T00:45:55.011Z,999.14
2019-02-10T00:46:54.986Z,999.14
2019-02-10T00:47:54.964Z,999.09
2019-02-10T00:48:54.940Z,999.09
2019-02-10T00:49:54.935Z,999.04
2019-02-10T00:50:54.893Z,999.05
2019-02-10T00:51:54.873Z,999.01
2019-02-10T00:52:54.850Z,998.97
2019-02-10T00:53:54.828Z,998.95
2019-02-10T00:54:54.800Z,999.01
2019-02-10T00:55:54.775Z,999.00
2019-02-10T00:56:54.751Z,998.97
2019-02-10T00:57:54.729Z,998.98
2019-02-10T00:58:54.713Z,998.90
2019-02-10T00:59:54.681Z,998.89
2019-02-10T01:00:54.665Z,998.83
2019-02-10T01:01:54.634Z,998.80
2019-02-10T01:02:54.611Z,998.78
2019-02-10T01:03:54.586Z,998.73
2019-02-10T01:04:54.564Z,998.73
2019-02-10T01:05:54.550Z,998.66
2019-02-10T01:06:54.516Z,998.67
2019-02-10T01:07:54.504Z,998.68
2019-02-10T01:08:54.468Z,998.64
2019-02-10T01:09:54.450Z,998.63
2019-02-10T01:10:54.427Z,998.66
2019-02-10T01:11:54.400Z,998.66
2019-02-10T01:12:54.385Z,998.65
2019-02-10T01:13:54.352Z,998.65
2019-02-10T01:14:54.328Z,998.57
2019-02-10T01:15:54.311Z,998.59
2019-02-10T01:16:54.280Z,998.55
2019-02-10T01:17:54.258Z,998.54
2019-02-10T01:18:54.244Z,998.54
2019-02-10T01:19:54.216Z,998.59
2019-02-10T01:20:54.187Z,998.60
2019-02-10T01:21:54.163Z,998.58
2019-02-10T01:22:54.147Z,998.53
2019-02-10T01:23:54.125Z,998.55
2019-02-10T01:24:54.096Z,998.48
2019-02-10T01:25:54.068Z,998.46
2019-02-10T01:26:54.047Z,998.45
2019-02-10T01:27:54.033Z,998.42
2019-02-10T01:28:54.007Z,998.39
2019-02-10T01:29:54.006Z,998.36
2019-02-10T01:30:53.958Z,998.35
2019-02-10T01:31:53.929Z,998.34
2019-02-10T01:32:53.904Z,998.34
2019-02-10T01:33:53.881Z,998.31
2019-02-10T01:34:53.863Z,998.29
2019-02-10T01:35:53.835Z,998.26
2019-02-10T01:36:53.814Z,998.27
2019-02-10T01:37:53.787Z,998.19
2019-02-10T01:38:53.764Z,998.17
2019-02-10T01:39:54.303Z,998.19
2019-02-10T01:40:53.718Z,998.10
2019-02-10T01:41:53.693Z,998.08
2019-02-10T01:42:53.669Z,998.04
2019-02-10T01:43:54.406Z,998.05
2019-02-10T01:44:53.626Z,997.98
2019-02-10T01:45:53.600Z,997.92
2019-02-10T01:46:53.576Z,997.92
2019-02-10T01:47:53.570Z,997.89
2019-02-10T01:48:53.530Z,997.89
2019-02-10T01:49:53.504Z,997.88
2019-02-10T01:50:53.482Z,997.86
2019-02-10T01:51:53.459Z,997.83
2019-02-10T01:52:53.433Z,997.76
2019-02-10T01:53:53.423Z,997.73
2019-02-10T01:54:53.389Z,997.69
2019-02-10T01:55:53.366Z,997.63
2019-02-10T01:56:53.347Z,997.61
2019-02-10T01:57:53.321Z,997.63
2019-02-10T01:58:53.295Z,997.63
2019-02-10T01:59:53.271Z,997.60
2019-02-10T02:00:53.250Z,997.53
2019-02-10T02:01:53.233Z,997.53
2019-02-10T02:02:53.212Z,997.55
2019-02-10T02:03:53.189Z,997.57
2019-02-10T02:04:53.157Z,997.53
2019-02-10T02:05:53.147Z,997.41
2019-02-10T02:06:57.925Z,997.47
2019-02-10T02:07:53.088Z,997.43
2019-02-10T02:08:53.066Z,997.42
2019-02-10T02:09:53.038Z,997.37
2019-02-10T02:10:53.017Z,997.36
2019-02-10T02:11:52.993Z,997.37
2019-02-10T02:12:52.976Z,997.33
2019-02-10T02:13:52.975Z,997.34
2019-02-10T02:14:52.931Z,997.32
2019-02-10T02:15:52.897Z,997.29
2019-02-10T02:16:52.876Z,997.30
2019-02-10T02:17:52.851Z,997.25
2019-02-10T02:18:52.829Z,997.23
2019-02-10T02:19:52.805Z,997.23
2019-02-10T02:20:52.799Z,997.18
2019-02-10T02:21:52.764Z,997.22
2019-02-10T02:22:52.742Z,997.11
2019-02-10T02:23:52.712Z,997.16
2019-02-10T02:24:52.789Z,997.14
2019-02-10T02:25:52.667Z,997.15
2019-02-10T02:26:52.641Z,997.09
2019-02-10T02:27:52.629Z,997.04
2019-02-10T02:28:52.599Z,996.97
2019-02-10T02:29:52.571Z,996.97
2019-02-10T02:30:52.553Z,996.98
2019-02-10T02:31:52.527Z,996.97
2019-02-10T02:32:52.512Z,996.96
2019-02-10T02:33:52.481Z,996.90
2019-02-10T02:34:52.458Z,996.89
2019-02-10T02:35:52.438Z,996.83
2019-02-10T02:36:52.410Z,996.81
2019-02-10T02:37:52.386Z,996.77
2019-02-10T02:38:52.364Z,996.73
2019-02-10T02:39:52.339Z,996.75
2019-02-10T02:40:52.313Z,996.69
2019-02-10T02:41:52.298Z,996.68
2019-02-10T02:42:52.267Z,996.71
2019-02-10T02:43:52.245Z,996.62
2019-02-10T02:44:52.222Z,996.59
2019-02-10T02:45:52.199Z,996.57
2019-02-10T02:46:52.175Z,996.56
2019-02-10T02:47:52.151Z,996.50
2019-02-10T02:48:52.128Z,996.53
2019-02-10T02:49:52.105Z,996.50
2019-02-10T02:50:52.087Z,996.49
2019-02-10T02:51:52.059Z,996.45
2019-02-10T02:52:52.036Z,996.41
2019-02-10T02:53:52.014Z,996.42
2019-02-10T02:54:51.992Z,996.41
2019-02-10T02:55:52.009Z,996.43
2019-02-10T02:56:51.987Z,996.40
2019-02-10T02:57:51.949Z,996.36
2019-02-10T02:58:51.894Z,996.41
2019-02-10T02:59:51.872Z,996.39
2019-02-10T03:00:51.857Z,996.31
2019-02-10T03:01:51.837Z,996.29
2019-02-10T03:02:51.807Z,996.32
2019-02-10T03:03:51.780Z,996.32
2019-02-10T03:04:51.764Z,996.20
2019-02-10T03:05:51.737Z,996.15
2019-02-10T03:06:51.713Z,996.13
2019-02-10T03:07:51.693Z,996.14
2019-02-10T03:08:51.661Z,996.13
2019-02-10T03:09:51.640Z,996.05
2019-02-10T03:10:51.618Z,996.00
2019-02-10T03:11:51.609Z,995.96
2019-02-10T03:12:51.568Z,995.88
2019-02-10T03:13:51.560Z,995.84
2019-02-10T03:14:51.522Z,995.78
2019-02-10T03:15:51.498Z,995.71
2019-02-10T03:16:51.481Z,995.67
2019-02-10T03:17:51.451Z,995.64
2019-02-10T03:18:53.200Z,995.59
2019-02-10T03:19:51.420Z,995.50
2019-02-10T03:20:51.380Z,995.51
2019-02-10T03:21:51.377Z,995.43
2019-02-10T03:22:51.338Z,995.40
2019-02-10T03:23:51.310Z,995.36
2019-02-10T03:24:51.286Z,995.38
2019-02-10T03:25:51.263Z,995.38
2019-02-10T03:26:51.240Z,995.38
2019-02-10T03:27:51.217Z,995.37
2019-02-10T03:28:51.192Z,995.32
2019-02-10T03:29:51.169Z,995.32
2019-02-10T03:30:51.150Z,995.32
2019-02-10T03:31:51.127Z,995.32
2019-02-10T03:32:51.109Z,995.23
2019-02-10T03:33:51.076Z,995.24
2019-02-10T03:34:51.052Z,995.18
2019-02-10T03:35:51.044Z,995.16
2019-02-10T03:36:51.005Z,995.14
2019-02-10T03:37:50.989Z,995.20
2019-02-10T03:38:50.972Z,995.11
2019-02-10T03:39:50.949Z,995.07
2019-02-10T03:40:50.910Z,995.02
2019-02-10T03:41:50.886Z,995.04
2019-02-10T03:42:50.873Z,994.99
2019-02-10T03:43:50.842Z,994.97
2019-02-10T03:44:50.818Z,994.95
2019-02-10T03:45:50.794Z,994.91
2019-02-10T03:46:50.770Z,994.89
2019-02-10T03:47:50.750Z,994.85
2019-02-10T03:48:50.723Z,994.81
2019-02-10T03:49:50.699Z,994.85
2019-02-10T03:50:50.690Z,994.80
2019-02-10T03:51:50.652Z,994.77
2019-02-10T03:52:50.627Z,994.73
2019-02-10T03:53:50.604Z,994.68
2019-02-10T03:54:50.579Z,994.72
2019-02-10T03:55:50.575Z,994.66
2019-02-10T03:56:50.537Z,994.67
2019-02-10T03:57:50.511Z,994.62
2019-02-10T03:58:50.488Z,994.56
2019-02-10T03:59:50.468Z,994.56
2019-02-10T04:00:50.437Z,994.53
2019-02-10T04:01:50.417Z,994.42
2019-02-10T04:02:50.386Z,994.39
2019-02-10T04:03:50.366Z,994.36
2019-02-10T04:04:50.339Z,994.40
2019-02-10T04:05:50.316Z,994.35
2019-02-10T04:06:50.292Z,994.30
2019-02-10T04:07:50.270Z,994.26
2019-02-10T04:08:50.254Z,994.22
2019-02-10T04:09:50.231Z,994.20
2019-02-10T04:10:50.213Z,994.18
2019-02-10T04:11:50.173Z,994.14
2019-02-10T04:12:50.157Z,994.08
2019-02-10T04:13:50.126Z,994.04
2019-02-10T04:14:50.101Z,994.02
2019-02-10T04:15:50.078Z,993.98
2019-02-10T04:16:50.062Z,993.93
2019-02-10T04:17:50.030Z,993.90
2019-02-10T04:18:50.012Z,993.90
2019-02-10T04:19:49.980Z,993.83
2019-02-10T04:20:49.954Z,993.84
2019-02-10T04:21:49.932Z,993.76
2019-02-10T04:22:49.907Z,993.79
2019-02-10T04:23:49.884Z,993.77
2019-02-10T04:24:49.878Z,993.81
2019-02-10T04:25:49.834Z,993.76
2019-02-10T04:26:49.811Z,993.76
2019-02-10T04:27:49.799Z,993.67
2019-02-10T04:28:49.763Z,993.65
2019-02-10T04:29:49.740Z,993.60
2019-02-10T04:30:49.715Z,993.56
2019-02-10T04:31:49.739Z,993.52
2019-02-10T04:32:49.670Z,993.48
2019-02-10T04:33:49.640Z,993.45
2019-02-10T04:34:49.618Z,993.41
2019-02-10T04:35:49.597Z,993.38
2019-02-10T04:36:49.576Z,993.40
2019-02-10T04:37:49.547Z,993.33
2019-02-10T04:38:49.530Z,993.32
2019-02-10T04:39:49.498Z,993.31
2019-02-10T04:40:49.470Z,993.25
2019-02-10T04:41:49.447Z,993.22
2019-02-10T04:42:49.422Z,993.15
2019-02-10T04:43:49.399Z,993.09
2019-02-10T04:44:49.374Z,993.08
2019-02-10T04:45:49.349Z,993.08
2019-02-10T04:46:49.328Z,993.02
2019-02-10T04:47:49.304Z,992.99
2019-02-10T04:48:49.276Z,992.98
2019-02-10T04:49:49.252Z,992.92
2019-02-10T04:50:49.242Z,992.89
2019-02-10T04:51:49.205Z,992.84
2019-02-10T04:52:49.179Z,992.79
2019-02-10T04:53:49.156Z,992.77
2019-02-10T04:54:49.137Z,992.69
2019-02-10T04:55:49.108Z,992.67
2019-02-10T04:56:49.083Z,992.68
2019-02-10T04:57:49.057Z,992.63
2019-02-10T04:58:49.047Z,992.58
2019-02-10T04:59:49.010Z,992.54
2019-02-10T05:00:48.985Z,992.37
2019-02-10T05:01:48.967Z,992.45
2019-02-10T05:02:48.940Z,992.38
2019-02-10T05:03:48.914Z,992.34
2019-02-10T05:04:48.886Z,992.35
2019-02-10T05:05:48.905Z,992.29
2019-02-10T05:06:48.846Z,992.25
2019-02-10T05:07:54.248Z,992.24
2019-02-10T05:08:48.788Z,992.14
2019-02-10T05:09:48.764Z,992.08
2019-02-10T05:10:48.747Z,991.99
2019-02-10T05:11:48.715Z,991.95
2019-02-10T05:12:48.690Z,991.91
2019-02-10T05:13:48.667Z,991.92
2019-02-10T05:14:48.641Z,991.87
2019-02-10T05:15:48.623Z,991.87
2019-02-10T05:16:48.593Z,991.77
2019-02-10T05:17:48.567Z,991.74
2019-02-10T05:18:48.546Z,991.80
2019-02-10T05:19:48.522Z,991.64
2019-02-10T05:20:48.497Z,991.64
2019-02-10T05:21:48.468Z,991.57
2019-02-10T05:22:48.446Z,991.53
2019-02-10T05:23:48.422Z,991.52
2019-02-10T05:24:48.400Z,991.48
2019-02-10T05:25:48.384Z,991.42
2019-02-10T05:26:48.350Z,991.42
2019-02-10T05:27:48.322Z,991.35
2019-02-10T05:28:48.296Z,991.41
2019-02-10T05:29:48.271Z,991.34
2019-02-10T05:30:48.247Z,991.25
2019-02-10T05:31:48.223Z,991.20
2019-02-10T05:32:48.197Z,991.20
2019-02-10T05:33:48.171Z,991.13
2019-02-10T05:34:48.146Z,991.05
2019-02-10T05:35:48.123Z,991.02
2019-02-10T05:36:48.097Z,991.01
2019-02-10T05:37:48.098Z,990.94
2019-02-10T05:38:48.047Z,990.82
2019-02-10T05:39:48.023Z,990.81
2019-02-10T05:40:47.998Z,990.71
2019-02-10T05:41:47.972Z,990.66
2019-02-10T05:42:47.948Z,990.63
2019-02-10T05:43:48.030Z,990.58
2019-02-10T05:44:47.898Z,990.59
2019-02-10T05:45:47.883Z,990.52
2019-02-10T05:46:47.856Z,990.47
2019-02-10T05:47:47.831Z,990.40
2019-02-10T05:48:47.802Z,990.29
2019-02-10T05:49:47.770Z,990.28
2019-02-10T05:50:47.763Z,990.22
2019-02-10T05:51:47.722Z,990.14
2019-02-10T05:52:47.697Z,990.14
2019-02-10T05:53:47.670Z,990.10
2019-02-10T05:54:47.647Z,990.12
2019-02-10T05:55:47.621Z,989.95
2019-02-10T05:56:47.598Z,990.01
2019-02-10T05:57:47.572Z,989.93
2019-02-10T05:58:47.545Z,989.91
2019-02-10T05:59:47.531Z,989.91
2019-02-10T06:00:47.496Z,989.87
2019-02-10T06:01:47.470Z,989.77
2019-02-10T06:02:47.444Z,989.73
2019-02-10T06:03:47.422Z,989.71
2019-02-10T06:04:47.398Z,989.70
2019-02-10T06:05:47.380Z,989.59
2019-02-10T06:06:47.359Z,989.57
2019-02-10T06:07:47.325Z,989.54
2019-02-10T06:08:47.296Z,989.49
2019-02-10T06:09:47.281Z,989.45
2019-02-10T06:10:47.245Z,989.43
2019-02-10T06:11:47.219Z,989.37
2019-02-10T06:12:47.204Z,989.33
2019-02-10T06:13:47.177Z,989.33
2019-02-10T06:14:47.144Z,989.19
2019-02-10T06:15:47.121Z,989.18
2019-02-10T06:16:47.094Z,989.20
2019-02-10T06:17:47.069Z,989.16
2019-02-10T06:18:47.043Z,989.06
2019-02-10T06:19:47.018Z,988.94
2019-02-10T06:20:46.992Z,988.88
2019-02-10T06:21:46.970Z,988.79
2019-02-10T06:22:46.945Z,988.79
2019-02-10T06:23:46.918Z,988.62
2019-02-10T06:24:46.905Z,988.60
2019-02-10T06:25:46.869Z,988.48
2019-02-10T06:26:46.848Z,988.52
2019-02-10T06:27:46.822Z,988.46
2019-02-10T06:28:46.791Z,988.48
2019-02-10T06:29:46.766Z,988.52
2019-02-10T06:30:46.739Z,988.56
2019-02-10T06:31:46.715Z,988.54
2019-02-10T06:32:46.691Z,988.58
2019-02-10T06:33:46.664Z,988.58
2019-02-10T06:34:46.639Z,988.75
2019-02-10T06:35:46.615Z,988.82
2019-02-10T06:36:46.617Z,988.82
2019-02-10T06:37:46.583Z,988.84
2019-02-10T06:38:46.546Z,988.69
2019-02-10T06:39:46.519Z,988.71
2019-02-10T06:40:46.490Z,988.59
2019-02-10T06:41:46.473Z,988.59
2019-02-10T06:42:46.444Z,988.51
2019-02-10T06:43:46.414Z,988.30
2019-02-10T06:44:46.389Z,988.26
2019-02-10T06:45:46.363Z,988.23
2019-02-10T06:46:46.346Z,988.29
2019-02-10T06:47:46.314Z,988.35
2019-02-10T06:48:46.293Z,988.41
2019-02-10T06:49:46.272Z,988.37
2019-02-10T06:50:46.239Z,988.31
2019-02-10T06:51:46.213Z,988.40
2019-02-10T06:52:46.198Z,988.35
2019-02-10T06:53:46.164Z,988.38
2019-02-10T06:54:46.140Z,988.42
2019-02-10T06:55:46.115Z,988.24
2019-02-10T06:56:46.089Z,988.15
2019-02-10T06:57:46.066Z,988.12
2019-02-10T06:58:46.046Z,988.11
2019-02-10T06:59:46.014Z,988.14
2019-02-10T07:00:45.992Z,988.10
2019-02-10T07:01:45.964Z,988.14
2019-02-10T07:02:45.944Z,988.16
2019-02-10T07:03:45.923Z,988.02
2019-02-10T07:04:45.897Z,987.99
2019-02-10T07:05:45.864Z,987.90
2019-02-10T07:06:45.846Z,987.89
2019-02-10T07:07:45.813Z,987.93
2019-02-10T07:08:45.789Z,987.80
2019-02-10T07:09:45.763Z,987.76
2019-02-10T07:10:45.745Z,987.78
2019-02-10T07:11:45.714Z,987.85
2019-02-10T07:12:45.698Z,987.84
2019-02-10T07:13:45.668Z,987.84
2019-02-10T07:14:45.639Z,987.76
2019-02-10T07:15:45.613Z,987.81
2019-02-10T07:16:45.586Z,987.74
2019-02-10T07:17:45.561Z,987.61
2019-02-10T07:18:45.536Z,987.56
2019-02-10T07:19:45.510Z,987.52
2019-02-10T07:20:45.495Z,987.54
2019-02-10T07:21:45.476Z,987.51
2019-02-10T07:22:45.444Z,987.42
2019-02-10T07:23:45.412Z,987.36
2019-02-10T07:24:45.395Z,987.35
2019-02-10T07:25:45.360Z,987.32
2019-02-10T07:26:45.441Z,987.29
2019-02-10T07:27:45.319Z,987.33
2019-02-10T07:28:45.288Z,987.25
2019-02-10T07:29:45.284Z,987.20
2019-02-10T07:30:45.237Z,987.20
2019-02-10T07:31:45.212Z,987.18
2019-02-10T07:32:45.185Z,987.20
2019-02-10T07:33:45.163Z,987.18
2019-02-10T07:34:48.254Z,987.12
2019-02-10T07:35:45.113Z,987.10
2019-02-10T07:36:45.088Z,987.04
2019-02-10T07:37:45.072Z,987.00
2019-02-10T07:38:45.037Z,986.96
2019-02-10T07:39:45.014Z,986.89
2019-02-10T07:40:44.998Z,986.80
2019-02-10T07:41:44.961Z,986.71
2019-02-10T07:42:44.946Z,986.69
2019-02-10T07:43:44.925Z,986.62
2019-02-10T07:44:44.892Z,986.62
2019-02-10T07:45:44.863Z,986.55
2019-02-10T07:46:44.846Z,986.52
2019-02-10T07:47:44.824Z,986.54
2019-02-10T07:48:44.797Z,986.47
2019-02-10T07:49:44.764Z,986.47
2019-02-10T07:50:44.741Z,986.40
2019-02-10T07:51:44.725Z,986.34
2019-02-10T07:52:44.695Z,986.35
2019-02-10T07:53:44.664Z,986.28
2019-02-10T07:54:44.641Z,986.28
2019-02-10T07:55:44.616Z,986.20
2019-02-10T07:56:44.591Z,986.16
2019-02-10T07:57:44.567Z,986.06
2019-02-10T07:58:44.543Z,986.10
2019-02-10T07:59:44.524Z,986.07
2019-02-10T08:00:44.493Z,985.98
2019-02-10T08:01:44.476Z,985.94
2019-02-10T08:02:44.443Z,985.87
2019-02-10T08:03:44.424Z,985.80
2019-02-10T08:04:44.395Z,985.77
2019-02-10T08:05:44.370Z,985.76
2019-02-10T08:06:44.346Z,985.76
2019-02-10T08:07:44.321Z,985.81
2019-02-10T08:08:46.614Z,985.91
2019-02-10T08:09:44.272Z,985.93
2019-02-10T08:10:44.254Z,985.89
2019-02-10T08:11:44.223Z,985.85
2019-02-10T08:12:44.206Z,985.79
2019-02-10T08:13:44.173Z,985.77
2019-02-10T08:14:44.149Z,985.76
2019-02-10T08:15:44.129Z,985.75
2019-02-10T08:16:44.123Z,985.71
2019-02-10T08:17:44.076Z,985.69
2019-02-10T08:18:44.053Z,985.61
2019-02-10T08:19:44.029Z,985.61
2019-02-10T08:20:44.003Z,985.57
2019-02-10T08:21:43.980Z,985.63
2019-02-10T08:22:43.968Z,985.50
2019-02-10T08:23:43.934Z,985.54
2019-02-10T08:24:43.911Z,985.45
2019-02-10T08:25:43.884Z,985.38
2019-02-10T08:26:43.860Z,985.46
2019-02-10T08:27:43.835Z,985.41
2019-02-10T08:28:43.808Z,985.43
2019-02-10T08:29:43.795Z,985.38
2019-02-10T08:30:43.826Z,985.41
2019-02-10T08:31:43.740Z,985.42
2019-02-10T08:32:43.724Z,985.33
2019-02-10T08:33:43.693Z,985.32
2019-02-10T08:34:43.668Z,985.38
2019-02-10T08:35:43.642Z,985.26
2019-02-10T08:36:43.628Z,985.27
2019-02-10T08:37:43.593Z,985.21
2019-02-10T08:38:43.572Z,985.17
2019-02-10T08:39:43.553Z,985.09
2019-02-10T08:40:43.858Z,985.07
2019-02-10T08:41:43.499Z,985.02
2019-02-10T08:42:43.475Z,985.09
2019-02-10T08:43:43.454Z,984.89
2019-02-10T08:44:43.430Z,984.96
2019-02-10T08:45:43.403Z,985.15
2019-02-10T08:46:43.381Z,984.97
2019-02-10T08:47:43.361Z,984.99
2019-02-10T08:48:43.335Z,985.03
2019-02-10T08:49:43.314Z,984.99
2019-02-10T08:50:43.286Z,984.96
2019-02-10T08:51:43.258Z,984.87
2019-02-10T08:52:43.232Z,984.78
2019-02-10T08:53:43.207Z,984.76
2019-02-10T08:54:43.185Z,984.74
2019-02-10T08:55:43.161Z,984.78
2019-02-10T08:56:43.134Z,984.65
2019-02-10T08:57:43.124Z,984.75
2019-02-10T08:58:43.097Z,984.65
2019-02-10T08:59:43.065Z,984.63
2019-02-10T09:00:43.204Z,984.65
2019-02-10T09:01:43.026Z,984.65
2019-02-10T09:02:42.992Z,984.60
2019-02-10T09:03:42.972Z,984.56
2019-02-10T09:04:42.952Z,984.51
2019-02-10T09:05:42.938Z,984.43
2019-02-10T09:06:42.900Z,984.40
2019-02-10T09:07:42.873Z,984.40
2019-02-10T09:08:42.866Z,984.38
2019-02-10T09:09:42.824Z,984.44
2019-02-10T09:10:42.800Z,984.43
2019-02-10T09:11:42.778Z,984.40
2019-02-10T09:12:42.760Z,984.37
2019-02-10T09:13:42.729Z,984.34
2019-02-10T09:14:42.731Z,984.40
2019-02-10T09:15:42.682Z,984.35
2019-02-10T09:16:42.667Z,984.37
2019-02-10T09:17:42.635Z,984.31
2019-02-10T09:18:42.610Z,984.35
2019-02-10T09:19:42.589Z,984.31
2019-02-10T09:20:42.571Z,984.28
2019-02-10T09:21:42.542Z,984.29
2019-02-10T09:22:42.531Z,984.22
2019-02-10T09:23:42.518Z,984.20
2019-02-10T09:24:42.476Z,984.17
2019-02-10T09:26:42.425Z,984.13
2019-02-10T09:27:42.402Z,984.11
2019-02-10T09:28:42.380Z,984.16
2019-02-10T09:29:42.351Z,984.09
2019-02-10T09:30:42.327Z,984.04
2019-02-10T09:31:42.305Z,984.04
2019-02-10T09:32:42.279Z,983.99
2019-02-10T09:33:42.255Z,984.04
2019-02-10T09:34:42.257Z,984.06
2019-02-10T09:35:42.211Z,984.08
2019-02-10T09:36:42.184Z,984.03
2019-02-10T09:37:42.163Z,984.00
2019-02-10T09:38:42.140Z,984.05
2019-02-10T09:39:42.125Z,984.03
2019-02-10T09:40:42.091Z,984.10
2019-02-10T09:41:42.069Z,984.05
2019-02-10T09:42:42.053Z,984.01
2019-02-10T09:43:42.038Z,983.96
2019-02-10T09:44:41.997Z,983.98
2019-02-10T09:45:41.975Z,984.01
2019-02-10T09:46:41.953Z,983.95
2019-02-10T09:47:41.947Z,984.05
2019-02-10T09:48:41.907Z,983.95
2019-02-10T09:49:41.883Z,984.04
2019-02-10T09:50:41.860Z,984.00
2019-02-10T09:51:41.839Z,983.98
2019-02-10T09:52:41.814Z,983.93
2019-02-10T09:53:41.795Z,983.95
2019-02-10T09:54:41.768Z,983.90
2019-02-10T09:55:41.743Z,983.83
2019-02-10T09:56:41.720Z,983.84
2019-02-10T09:57:41.708Z,983.86
2019-02-10T09:58:41.674Z,983.91
2019-02-10T09:59:41.663Z,983.86
2019-02-10T10:00:41.632Z,983.92
2019-02-10T10:01:41.627Z,983.91
2019-02-10T10:02:41.589Z,983.93
2019-02-10T10:03:41.564Z,983.93
2019-02-10T10:04:41.556Z,983.84
2019-02-10T10:05:41.520Z,983.83
2019-02-10T10:06:41.492Z,983.82
2019-02-10T10:07:41.469Z,983.84
2019-02-10T10:08:41.468Z,983.83
2019-02-10T10:09:41.430Z,983.78
2019-02-10T10:10:41.416Z,983.81
2019-02-10T10:11:41.376Z,983.78
2019-02-10T10:12:41.354Z,983.80
2019-02-10T10:13:41.335Z,983.77
2019-02-10T10:14:41.307Z,983.77
2019-02-10T10:15:41.290Z,983.76
2019-02-10T10:16:41.260Z,983.79
2019-02-10T10:17:41.241Z,983.72
2019-02-10T10:18:41.225Z,983.68
2019-02-10T10:19:41.202Z,983.66
2019-02-10T10:20:41.201Z,983.69
2019-02-10T10:21:41.148Z,983.75
2019-02-10T10:22:41.126Z,983.71
2019-02-10T10:23:41.103Z,983.68
2019-02-10T10:24:41.082Z,983.61
2019-02-10T10:25:41.057Z,983.61
2019-02-10T10:26:41.043Z,983.55
2019-02-10T10:27:41.026Z,983.55
2019-02-10T10:28:40.996Z,983.59
2019-02-10T10:29:40.975Z,983.55
2019-02-10T10:30:40.943Z,983.53
2019-02-10T10:31:40.923Z,983.57
2019-02-10T10:32:40.936Z,983.53
2019-02-10T10:33:40.893Z,983.51
2019-02-10T10:34:40.850Z,983.54
2019-02-10T10:35:40.838Z,983.57
2019-02-10T10:36:40.816Z,983.45
2019-02-10T10:37:40.886Z,983.42
2019-02-10T10:38:40.870Z,983.51
2019-02-10T10:39:40.736Z,983.44
2019-02-10T10:40:40.775Z,983.43
2019-02-10T10:41:40.694Z,983.38
2019-02-10T10:42:40.667Z,983.36
2019-02-10T10:43:40.664Z,983.33
2019-02-10T10:44:40.623Z,983.32
2019-02-10T10:45:40.606Z,983.33
2019-02-10T10:46:40.589Z,983.24
2019-02-10T10:47:40.561Z,983.27
2019-02-10T10:48:40.595Z,983.30
2019-02-10T10:49:40.518Z,983.28
2019-02-10T10:50:40.495Z,983.25
2019-02-10T10:51:40.486Z,983.29
2019-02-10T10:52:40.441Z,983.30
2019-02-10T10:53:40.417Z,983.24
2019-02-10T10:54:42.768Z,983.28
2019-02-10T10:55:40.374Z,983.29
2019-02-10T10:56:40.350Z,983.24
2019-02-10T10:57:40.329Z,983.30
2019-02-10T10:58:40.306Z,983.32
2019-02-10T10:59:40.284Z,983.30
2019-02-10T11:00:40.259Z,983.32
2019-02-10T11:01:40.236Z,983.29
2019-02-10T11:02:40.314Z,983.35
2019-02-10T11:03:40.193Z,983.27
2019-02-10T11:04:40.241Z,983.27
2019-02-10T11:05:40.166Z,983.32
2019-02-10T11:06:40.127Z,983.32
2019-02-10T11:07:40.111Z,983.27
2019-02-10T11:08:40.087Z,983.16
2019-02-10T11:09:41.758Z,983.19
2019-02-10T11:10:40.045Z,983.18
2019-02-10T11:11:40.021Z,983.19
2019-02-10T11:12:39.998Z,983.13
2019-02-10T11:13:39.974Z,983.04
2019-02-10T11:14:39.950Z,983.13
2019-02-10T11:15:39.922Z,983.02
2019-02-10T11:16:39.898Z,983.04
2019-02-10T11:17:39.876Z,983.07
2019-02-10T11:18:39.853Z,983.02
2019-02-10T11:19:39.849Z,982.99
2019-02-10T11:20:39.909Z,983.01
2019-02-10T11:21:39.798Z,983.01
2019-02-10T11:22:39.763Z,982.96
2019-02-10T11:23:39.749Z,982.93
2019-02-10T11:24:39.717Z,982.97
2019-02-10T11:25:39.699Z,982.90
2019-02-10T11:26:39.674Z,983.00
2019-02-10T11:27:39.650Z,982.98
2019-02-10T11:28:39.678Z,982.92
2019-02-10T11:29:39.616Z,982.86
2019-02-10T11:30:39.591Z,982.88
2019-02-10T11:31:39.564Z,982.85
2019-02-10T11:32:39.538Z,982.89
2019-02-10T11:33:39.518Z,982.82
2019-02-10T11:34:46.057Z,982.79
2019-02-10T11:35:39.480Z,982.77
2019-02-10T11:36:39.450Z,982.70
2019-02-10T11:37:39.424Z,982.66
2019-02-10T11:38:39.452Z,982.68
2019-02-10T11:39:43.756Z,982.65
2019-02-10T11:40:39.356Z,982.73
2019-02-10T11:41:39.341Z,982.55
2019-02-10T11:42:39.320Z,982.72
2019-02-10T11:43:39.301Z,982.80
2019-02-10T11:44:39.270Z,982.70
2019-02-10T11:45:39.243Z,982.69
2019-02-10T11:46:39.230Z,982.63
2019-02-10T11:47:39.198Z,982.65
2019-02-10T11:48:39.176Z,982.66
2019-02-10T11:49:39.153Z,982.71
2019-02-10T11:50:39.133Z,982.68
2019-02-10T11:51:39.150Z,982.69
2019-02-10T11:52:39.093Z,982.66
2019-02-10T11:53:39.063Z,982.55
2019-02-10T11:54:39.050Z,982.56
2019-02-10T11:55:39.018Z,982.60
2019-02-10T11:57:38.975Z,982.47
2019-02-10T11:58:38.954Z,982.61
2019-02-10T11:59:38.929Z,982.53
2019-02-10T12:00:38.910Z,982.49
2019-02-10T12:01:38.886Z,982.49
2019-02-10T12:02:38.873Z,982.57
2019-02-10T12:03:38.858Z,982.51
2019-02-10T12:04:38.817Z,982.50
2019-02-10T12:05:38.795Z,982.45
2019-02-10T12:06:38.894Z,982.44
2019-02-10T12:07:38.765Z,982.47
2019-02-10T12:08:38.730Z,982.51
2019-02-10T12:09:38.721Z,982.40
2019-02-10T12:10:38.690Z,982.53
2019-02-10T12:11:38.667Z,982.54
2019-02-10T12:12:38.642Z,982.47
2019-02-10T12:13:40.405Z,982.48
2019-02-10T12:14:38.603Z,982.45
2019-02-10T12:15:38.574Z,982.46
2019-02-10T12:16:38.557Z,982.39
2019-02-10T12:17:38.526Z,982.45
2019-02-10T12:18:38.511Z,982.36
2019-02-10T12:19:38.485Z,982.49
2019-02-10T12:20:38.466Z,982.51
2019-02-10T12:21:38.455Z,982.47
2019-02-10T12:22:38.423Z,982.48
2019-02-10T12:23:38.411Z,982.43
2019-02-10T12:24:40.029Z,982.36
2019-02-10T12:25:38.351Z,982.47
2019-02-10T12:26:38.340Z,982.39
2019-02-10T12:27:38.361Z,982.45
2019-02-10T12:28:38.295Z,982.39
2019-02-10T12:29:38.262Z,982.41
2019-02-10T12:30:38.238Z,982.37